createdAt,value
2022-12-13T00:02:16.745Z,-2.20
2022-12-13T00:04:49.279Z,-2.20
2022-12-13T00:07:22.044Z,-2.20
2022-12-13T00:09:52.119Z,-2.20
2022-12-13T00:12:22.248Z,-2.20
2022-12-13T00:14:52.639Z,-2.30
2022-12-13T00:17:23.410Z,-2.20
2022-12-13T00:19:53.686Z,-2.20
2022-12-13T00:22:26.616Z,-2.30
2022-12-13T00:24:58.274Z,-2.40
2022-12-13T00:27:28.547Z,-2.40
2022-12-13T00:29:58.647Z,-2.40
2022-12-13T00:32:28.815Z,-2.50
2022-12-13T00:34:58.866Z,-2.60
2022-12-13T00:37:31.572Z,-2.60
2022-12-13T00:40:04.029Z,-2.50
2022-12-13T00:42:34.184Z,-2.50
2022-12-13T00:45:04.628Z,-2.50
2022-12-13T00:47:34.761Z,-2.50
2022-12-13T00:50:04.822Z,-2.40
2022-12-13T00:52:37.851Z,-2.30
2022-12-13T00:55:09.610Z,-2.20
2022-12-13T00:57:40.054Z,-2.20
2022-12-13T01:00:14.776Z,-2.20
2022-12-13T01:02:44.926Z,-2.30
2022-12-13T01:05:28.324Z,-2.40
2022-12-13T01:08:09.424Z,-2.40
2022-12-13T01:10:39.559Z,-2.40
2022-12-13T01:13:09.673Z,-2.40
2022-12-13T01:15:44.802Z,-2.50
2022-12-13T01:18:18.277Z,-2.50
2022-12-13T01:21:01.991Z,-2.50
2022-12-13T01:23:35.801Z,-2.60
2022-12-13T01:26:07.859Z,-2.60
2022-12-13T01:28:38.835Z,-2.60
2022-12-13T01:31:12.065Z,-2.60
2022-12-13T01:33:43.209Z,-2.50
2022-12-13T01:36:17.504Z,-2.50
2022-12-13T01:38:51.369Z,-2.60
2022-12-13T01:41:29.159Z,-2.60
2022-12-13T01:44:03.829Z,-2.60
2022-12-13T01:46:36.118Z,-2.60
2022-12-13T01:49:19.569Z,-2.70
2022-12-13T01:51:56.869Z,-2.70
2022-12-13T01:54:39.182Z,-2.60
2022-12-13T01:57:23.090Z,-2.70
2022-12-13T01:59:56.725Z,-2.70
2022-12-13T02:02:27.277Z,-2.70
2022-12-13T02:05:08.701Z,-2.70
2022-12-13T02:07:41.143Z,-2.70
2022-12-13T02:10:14.854Z,-2.80
2022-12-13T02:12:45.841Z,-2.70
2022-12-13T02:15:20.368Z,-2.80
2022-12-13T02:18:20.111Z,-2.80
2022-12-13T02:21:35.984Z,-2.80
2022-12-13T02:24:55.340Z,-2.80
2022-12-13T02:28:03.378Z,-2.70
2022-12-13T02:31:02.884Z,-2.80
2022-12-13T02:33:53.462Z,-2.80
2022-12-13T02:36:35.968Z,-2.80
2022-12-13T02:39:16.576Z,-2.70
2022-12-13T02:42:08.139Z,-2.80
2022-12-13T02:44:58.348Z,-2.80
2022-12-13T02:47:35.602Z,-2.80
2022-12-13T02:50:11.592Z,-2.90
2022-12-13T02:52:46.719Z,-2.90
2022-12-13T02:55:21.941Z,-3.00
2022-12-13T02:57:55.496Z,-3.00
2022-12-13T03:00:50.478Z,-3.00
2022-12-13T03:03:46.202Z,-3.10
2022-12-13T03:06:33.723Z,-3.10
2022-12-13T03:09:27.183Z,-2.90
2022-12-13T03:12:29.909Z,-2.90
2022-12-13T03:15:10.593Z,-2.80
2022-12-13T03:17:48.957Z,-2.60
2022-12-13T03:20:28.018Z,-2.50
2022-12-13T03:23:00.441Z,-2.50
2022-12-13T03:25:34.702Z,-2.40
2022-12-13T03:28:05.380Z,-2.30
2022-12-13T03:30:36.642Z,-2.30
2022-12-13T03:33:07.150Z,-2.30
2022-12-13T03:35:44.720Z,-2.30
2022-12-13T03:38:23.045Z,-2.30
2022-12-13T03:41:00.849Z,-2.10
2022-12-13T03:43:32.236Z,-2.10
2022-12-13T03:46:02.354Z,-2.10
2022-12-13T03:48:32.543Z,-2.10
2022-12-13T03:51:05.406Z,-1.90
2022-12-13T03:53:38.719Z,-1.90
2022-12-13T03:56:10.173Z,-1.90
2022-12-13T03:58:42.191Z,-1.80
2022-12-13T04:01:17.579Z,-1.90
2022-12-13T04:03:49.978Z,-1.80
2022-12-13T04:06:24.676Z,-1.80
2022-12-13T04:08:57.566Z,-1.80
2022-12-13T04:11:42.377Z,-1.70
2022-12-13T04:14:21.867Z,-1.80
2022-12-13T04:16:53.858Z,-1.80
2022-12-13T04:19:24.270Z,-1.80
2022-12-13T04:21:57.503Z,-1.90
2022-12-13T04:24:31.328Z,-1.90
2022-12-13T04:27:03.257Z,-2.00
2022-12-13T04:29:34.976Z,-2.00
2022-12-13T04:32:26.653Z,-2.00
2022-12-13T04:35:00.764Z,-2.10
2022-12-13T04:37:34.978Z,-2.00
2022-12-13T04:40:05.262Z,-1.80
2022-12-13T04:42:35.632Z,-1.80
2022-12-13T04:45:06.537Z,-2.00
2022-12-13T04:47:36.829Z,-2.10
2022-12-13T04:50:08.419Z,-2.10
2022-12-13T04:52:41.619Z,-2.20
2022-12-13T04:55:12.733Z,-2.20
2022-12-13T04:57:43.589Z,-2.20
2022-12-13T05:00:17.169Z,-2.00
2022-12-13T05:02:47.531Z,-2.10
2022-12-13T05:05:18.233Z,-2.10
2022-12-13T05:07:51.363Z,-2.10
2022-12-13T05:10:34.107Z,-2.20
2022-12-13T05:13:08.188Z,-2.20
2022-12-13T05:15:38.394Z,-2.00
2022-12-13T05:18:11.107Z,-2.10
2022-12-13T05:20:42.391Z,-2.20
2022-12-13T05:23:15.225Z,-2.40
2022-12-13T05:25:54.408Z,-2.50
2022-12-13T05:28:34.410Z,-2.60
2022-12-13T05:31:22.642Z,-2.60
2022-12-13T05:33:54.535Z,-2.70
2022-12-13T05:36:33.009Z,-2.70
2022-12-13T05:39:05.854Z,-2.70
2022-12-13T05:42:01.995Z,-2.80
2022-12-13T05:44:36.467Z,-2.90
2022-12-13T05:47:06.684Z,-2.90
2022-12-13T05:49:39.710Z,-2.90
2022-12-13T05:52:10.001Z,-3.00
2022-12-13T05:54:43.116Z,-3.00
2022-12-13T05:57:13.626Z,-3.00
2022-12-13T05:59:44.068Z,-3.00
2022-12-13T06:02:19.759Z,-3.00
2022-12-13T06:04:51.601Z,-3.00
2022-12-13T06:07:21.891Z,-3.00
2022-12-13T06:10:10.081Z,-3.00
2022-12-13T06:12:43.675Z,-3.10
2022-12-13T06:15:22.333Z,-3.20
2022-12-13T06:17:53.145Z,-3.20
2022-12-13T06:20:24.756Z,-3.20
2022-12-13T06:22:55.373Z,-3.20
2022-12-13T06:25:30.916Z,-3.30
2022-12-13T06:28:02.299Z,-3.30
2022-12-13T06:30:33.321Z,-3.30
2022-12-13T06:33:03.500Z,-3.30
2022-12-13T06:35:38.049Z,-3.40
2022-12-13T06:38:12.358Z,-3.30
2022-12-13T06:40:45.182Z,-3.30
2022-12-13T06:43:15.801Z,-3.30
2022-12-13T06:45:46.021Z,-3.30
2022-12-13T06:48:20.022Z,-3.30
2022-12-13T06:50:51.600Z,-3.30
2022-12-13T06:53:21.705Z,-3.30
2022-12-13T06:55:54.491Z,-3.30
2022-12-13T06:58:25.111Z,-3.40
2022-12-13T07:01:05.184Z,-3.30
2022-12-13T07:03:36.247Z,-3.30
2022-12-13T07:06:11.030Z,-3.30
2022-12-13T07:08:41.156Z,-3.30
2022-12-13T07:11:18.484Z,-3.30
2022-12-13T07:13:48.905Z,-3.40
2022-12-13T07:16:19.206Z,-3.50
2022-12-13T07:18:49.443Z,-3.60
2022-12-13T07:21:21.913Z,-3.60
2022-12-13T07:23:55.764Z,-3.60
2022-12-13T07:26:28.758Z,-3.60
2022-12-13T07:28:58.895Z,-3.60
2022-12-13T07:31:29.531Z,-3.60
2022-12-13T07:33:59.667Z,-3.60
2022-12-13T07:36:29.787Z,-3.60
2022-12-13T07:39:01.491Z,-3.60
2022-12-13T07:41:34.265Z,-3.50
2022-12-13T07:44:05.525Z,-3.50
2022-12-13T07:46:35.728Z,-3.40
2022-12-13T07:49:07.079Z,-3.40
2022-12-13T07:51:37.744Z,-3.40
2022-12-13T07:54:09.477Z,-3.40
2022-12-13T07:56:42.225Z,-3.40
2022-12-13T07:59:14.936Z,-3.40
2022-12-13T08:01:45.255Z,-3.30
2022-12-13T08:04:15.434Z,-3.30
2022-12-13T08:06:45.624Z,-3.30
2022-12-13T08:09:16.262Z,-3.40
2022-12-13T08:11:48.938Z,-3.40
2022-12-13T08:14:20.102Z,-3.30
2022-12-13T08:16:50.449Z,-3.20
2022-12-13T08:19:22.958Z,-3.10
2022-12-13T08:21:56.156Z,-3.10
2022-12-13T08:24:28.474Z,-2.90
2022-12-13T08:27:05.715Z,-2.90
2022-12-13T08:29:37.978Z,-2.90
2022-12-13T08:32:11.838Z,-2.80
2022-12-13T08:34:42.462Z,-2.60
2022-12-13T08:37:12.699Z,-2.10
2022-12-13T08:39:45.079Z,-2.00
2022-12-13T08:42:20.584Z,-2.00
2022-12-13T08:44:53.031Z,-1.90
2022-12-13T08:47:26.786Z,-1.80
2022-12-13T08:50:03.962Z,-1.70
2022-12-13T08:52:40.257Z,-1.70
2022-12-13T08:55:13.151Z,-1.40
2022-12-13T08:57:47.396Z,-1.10
2022-12-13T09:00:21.109Z,-1.20
2022-12-13T09:02:51.496Z,-1.10
2022-12-13T09:05:33.764Z,-1.10
2022-12-13T09:08:24.556Z,-0.80
2022-12-13T09:11:11.527Z,-0.50
2022-12-13T09:14:01.238Z,-0.10
2022-12-13T09:16:35.866Z,0.90
2022-12-13T09:19:25.360Z,1.90
2022-12-13T09:22:02.487Z,2.90
2022-12-13T09:24:35.886Z,3.70
2022-12-13T09:27:09.787Z,3.30
2022-12-13T09:29:42.949Z,3.40
2022-12-13T09:32:13.078Z,3.50
2022-12-13T09:34:43.585Z,3.80
2022-12-13T09:37:22.924Z,4.30
2022-12-13T09:39:55.980Z,4.60
2022-12-13T09:42:31.260Z,5.00
2022-12-13T09:45:22.586Z,5.30
2022-12-13T09:48:07.205Z,5.90
2022-12-13T09:50:51.560Z,5.70
2022-12-13T09:53:34.045Z,5.10
2022-12-13T09:56:10.325Z,5.10
2022-12-13T09:58:43.106Z,4.40
2022-12-13T10:01:23.370Z,4.90
2022-12-13T10:03:56.922Z,4.60
2022-12-13T10:06:31.602Z,4.30
2022-12-13T10:09:04.764Z,5.30
2022-12-13T10:11:35.380Z,4.90
2022-12-13T10:14:15.680Z,4.20
2022-12-13T10:16:54.553Z,3.60
2022-12-13T10:19:32.901Z,3.30
2022-12-13T10:22:07.853Z,3.50
2022-12-13T10:24:54.299Z,3.90
2022-12-13T10:27:32.731Z,4.80
2022-12-13T10:30:14.622Z,4.40
2022-12-13T10:32:57.747Z,5.40
2022-12-13T10:35:31.977Z,5.10
2022-12-13T10:38:05.742Z,5.00
2022-12-13T10:40:38.248Z,4.70
2022-12-13T10:43:14.005Z,4.20
2022-12-13T10:45:45.147Z,3.30
2022-12-13T10:48:30.772Z,3.10
2022-12-13T10:51:12.475Z,3.80
2022-12-13T10:53:49.611Z,4.00
2022-12-13T10:56:23.514Z,4.20
2022-12-13T10:59:17.178Z,4.10
2022-12-13T11:01:48.009Z,4.20
2022-12-13T11:04:38.113Z,3.60
2022-12-13T11:07:26.807Z,3.50
2022-12-13T11:09:57.223Z,3.70
2022-12-13T11:12:36.516Z,3.70
2022-12-13T11:15:10.865Z,3.90
2022-12-13T11:17:52.884Z,3.70
2022-12-13T11:20:31.913Z,4.10
2022-12-13T11:23:10.251Z,4.30
2022-12-13T11:25:45.931Z,4.50
2022-12-13T11:28:39.555Z,4.20
2022-12-13T11:31:21.394Z,3.60
2022-12-13T11:34:04.979Z,2.90
2022-12-13T11:36:53.683Z,2.70
2022-12-13T11:39:33.763Z,3.00
2022-12-13T11:42:20.472Z,3.40
2022-12-13T11:45:06.979Z,3.40
2022-12-13T11:47:49.179Z,3.30
2022-12-13T11:50:33.578Z,3.00
2022-12-13T11:53:33.858Z,3.20
2022-12-13T11:56:17.963Z,3.50
2022-12-13T11:59:03.178Z,3.60
2022-12-13T12:01:44.530Z,3.10
2022-12-13T12:04:26.549Z,2.80
2022-12-13T12:07:30.722Z,2.70
2022-12-13T12:10:07.358Z,2.70
2022-12-13T12:12:40.539Z,2.70
2022-12-13T12:15:26.635Z,2.60
2022-12-13T12:18:00.571Z,2.60
2022-12-13T12:20:47.617Z,2.50
2022-12-13T12:23:41.883Z,2.20
2022-12-13T12:26:21.231Z,1.90
2022-12-13T12:29:15.655Z,1.80
2022-12-13T12:31:59.381Z,1.90
2022-12-13T12:34:44.234Z,1.70
2022-12-13T12:37:30.253Z,1.40
2022-12-13T12:41:14.368Z,1.50
2022-12-13T12:43:37.749Z,1.30
2022-12-13T12:46:52.353Z,1.00
2022-12-13T12:50:05.934Z,1.00
2022-12-13T12:52:53.676Z,0.80
2022-12-13T12:55:39.716Z,0.80
2022-12-13T12:58:26.471Z,0.70
2022-12-13T13:01:19.474Z,0.50
2022-12-13T13:03:54.051Z,0.40
2022-12-13T13:06:38.107Z,0.30
2022-12-13T13:09:11.548Z,0.20
2022-12-13T13:11:44.880Z,0.00
2022-12-13T13:14:33.670Z,0.10
2022-12-13T13:17:48.321Z,0.10
2022-12-13T13:20:25.982Z,0.20
2022-12-13T13:23:38.663Z,0.30
2022-12-13T13:26:23.462Z,0.20
2022-12-13T13:28:48.842Z,0.30
2022-12-13T13:31:19.248Z,0.30
2022-12-13T13:33:58.478Z,0.40
2022-12-13T13:36:55.898Z,0.30
2022-12-13T13:39:59.911Z,0.30
2022-12-13T13:42:32.340Z,0.30
2022-12-13T13:45:27.401Z,0.30
2022-12-13T13:48:35.686Z,0.40
2022-12-13T13:52:23.764Z,0.40
2022-12-13T13:55:32.881Z,0.40
2022-12-13T13:59:23.773Z,0.30
2022-12-13T14:02:44.307Z,0.50
2022-12-13T14:05:58.335Z,0.40
2022-12-13T14:08:44.460Z,0.40
2022-12-13T14:11:50.939Z,0.50
2022-12-13T14:15:37.852Z,0.30
2022-12-13T14:18:56.225Z,0.20
2022-12-13T14:21:51.364Z,0.00
2022-12-13T14:24:40.297Z,0.00
2022-12-13T14:27:30.304Z,0.00
2022-12-13T14:30:02.271Z,0.00
2022-12-13T14:32:54.181Z,-0.10
2022-12-13T14:35:30.975Z,0.00
2022-12-13T14:38:04.293Z,-0.10
2022-12-13T14:40:47.636Z,-0.10
2022-12-13T14:43:27.585Z,-0.10
2022-12-13T14:46:01.577Z,-0.20
2022-12-13T14:48:38.610Z,-0.10
2022-12-13T14:51:29.116Z,-0.10
2022-12-13T14:53:59.421Z,-0.20
2022-12-13T14:56:32.660Z,-0.30
2022-12-13T14:59:06.003Z,-0.30
2022-12-13T15:01:38.923Z,-0.30
2022-12-13T15:04:29.169Z,-0.30
2022-12-13T15:07:07.225Z,-0.40
2022-12-13T15:09:44.569Z,-0.30
2022-12-13T15:12:24.573Z,-0.40
2022-12-13T15:15:03.017Z,-0.40
2022-12-13T15:17:39.285Z,-0.40
2022-12-13T15:20:28.201Z,-0.50
2022-12-13T15:23:06.154Z,-0.50
2022-12-13T15:25:37.958Z,-0.50
2022-12-13T15:28:21.486Z,-0.50
2022-12-13T15:30:53.342Z,-0.60
2022-12-13T15:33:33.429Z,-0.60
2022-12-13T15:36:13.157Z,-0.60
2022-12-13T15:38:51.547Z,-0.70
2022-12-13T15:41:27.587Z,-0.70
2022-12-13T15:44:05.665Z,-0.60
2022-12-13T15:46:39.561Z,-0.60
2022-12-13T15:49:26.915Z,-0.60
2022-12-13T15:52:01.397Z,-0.60
2022-12-13T15:54:31.990Z,-0.60
2022-12-13T15:57:13.981Z,-0.50
2022-12-13T15:59:48.215Z,-0.50
2022-12-13T16:02:24.390Z,-0.60
2022-12-13T16:04:55.399Z,-0.70
2022-12-13T16:07:32.688Z,-0.70
2022-12-13T16:10:03.347Z,-0.80
2022-12-13T16:12:47.626Z,-0.80
2022-12-13T16:15:28.782Z,-0.90
2022-12-13T16:18:17.166Z,-0.90
2022-12-13T16:20:47.371Z,-0.90
2022-12-13T16:23:26.706Z,-0.90
2022-12-13T16:25:57.562Z,-0.90
2022-12-13T16:28:27.632Z,-0.80
2022-12-13T16:31:15.047Z,-0.90
2022-12-13T16:33:45.690Z,-1.00
2022-12-13T16:36:15.865Z,-1.00
2022-12-13T16:38:46.003Z,-1.10
2022-12-13T16:41:17.153Z,-1.10
2022-12-13T16:43:56.753Z,-1.10
2022-12-13T16:47:15.081Z,-1.10
2022-12-13T16:49:31.290Z,-1.10
2022-12-13T16:52:03.003Z,-1.10
2022-12-13T16:54:33.150Z,-1.10
2022-12-13T16:57:03.291Z,-1.20
2022-12-13T16:59:33.425Z,-1.20
2022-12-13T17:02:06.282Z,-1.30
2022-12-13T17:04:39.724Z,-1.30
2022-12-13T17:07:09.916Z,-1.30
2022-12-13T17:09:42.130Z,-1.30
2022-12-13T17:12:12.341Z,-1.30
2022-12-13T17:14:42.455Z,-1.40
2022-12-13T17:17:17.981Z,-1.40
2022-12-13T17:19:48.316Z,-1.40
2022-12-13T17:22:18.419Z,-1.40
2022-12-13T17:24:48.588Z,-1.40
2022-12-13T17:27:18.684Z,-1.40
2022-12-13T17:29:50.502Z,-1.40
2022-12-13T17:32:23.171Z,-1.30
2022-12-13T17:34:59.054Z,-1.30
2022-12-13T17:37:29.151Z,-1.40
2022-12-13T17:40:00.513Z,-1.40
2022-12-13T17:42:30.587Z,-1.40
2022-12-13T17:45:00.779Z,-1.40
2022-12-13T17:47:33.517Z,-1.40
2022-12-13T17:50:03.638Z,-1.40
2022-12-13T17:52:33.812Z,-1.40
2022-12-13T17:55:05.186Z,-1.40
2022-12-13T17:57:36.002Z,-1.30
2022-12-13T18:00:08.913Z,-1.40
2022-12-13T18:02:41.912Z,-1.40
2022-12-13T18:05:26.370Z,-1.30
2022-12-13T18:07:56.690Z,-1.30
2022-12-13T18:10:30.003Z,-1.30
2022-12-13T18:13:01.094Z,-1.30
2022-12-13T18:15:31.309Z,-1.20
2022-12-13T18:18:12.178Z,-1.10
2022-12-13T18:20:43.760Z,-1.20
2022-12-13T18:23:15.197Z,-1.20
2022-12-13T18:25:45.959Z,-1.30
2022-12-13T18:28:19.464Z,-1.30
2022-12-13T18:30:49.669Z,-1.30
2022-12-13T18:33:27.205Z,-1.30
2022-12-13T18:35:57.794Z,-1.30
2022-12-13T18:38:36.144Z,-1.20
2022-12-13T18:41:11.384Z,-1.30
2022-12-13T18:43:41.438Z,-1.30
2022-12-13T18:46:13.469Z,-1.30
2022-12-13T18:48:46.510Z,-1.30
2022-12-13T18:51:16.679Z,-1.30
2022-12-13T18:53:47.351Z,-1.30
2022-12-13T18:56:19.789Z,-1.30
2022-12-13T18:58:50.769Z,-1.30
2022-12-13T19:01:22.900Z,-1.30
2022-12-13T19:03:56.463Z,-1.40
2022-12-13T19:06:30.110Z,-1.30
2022-12-13T19:09:01.759Z,-1.30
2022-12-13T19:11:32.251Z,-1.40
2022-12-13T19:14:02.775Z,-1.40
2022-12-13T19:16:32.946Z,-1.40
2022-12-13T19:19:07.002Z,-1.40
2022-12-13T19:21:37.121Z,-1.40
2022-12-13T19:24:10.969Z,-1.40
2022-12-13T19:26:41.265Z,-1.30
2022-12-13T19:29:11.390Z,-1.40
2022-12-13T19:31:41.504Z,-1.40
2022-12-13T19:34:14.217Z,-1.40
2022-12-13T19:36:44.347Z,-1.40
2022-12-13T19:39:15.868Z,-1.40
2022-12-13T19:41:46.043Z,-1.40
2022-12-13T19:44:16.174Z,-1.30
2022-12-13T19:46:48.238Z,-1.40
2022-12-13T19:49:23.298Z,-1.40
2022-12-13T19:51:53.438Z,-1.40
2022-12-13T19:54:25.022Z,-1.40
2022-12-13T19:56:55.671Z,-1.40
2022-12-13T19:59:28.237Z,-1.40
2022-12-13T20:01:58.564Z,-1.40
2022-12-13T20:04:33.977Z,-1.40
2022-12-13T20:07:04.054Z,-1.40
2022-12-13T20:09:34.528Z,-1.40
2022-12-13T20:12:05.262Z,-1.50
2022-12-13T20:14:35.339Z,-1.40
2022-12-13T20:17:05.500Z,-1.40
2022-12-13T20:19:38.423Z,-1.40
2022-12-13T20:22:08.543Z,-1.40
2022-12-13T20:24:38.685Z,-1.50
2022-12-13T20:27:11.235Z,-1.50
2022-12-13T20:29:42.035Z,-1.40
2022-12-13T20:32:18.576Z,-1.40
2022-12-13T20:34:55.147Z,-1.40
2022-12-13T20:37:27.910Z,-1.20
2022-12-13T20:39:58.018Z,-1.30
2022-12-13T20:42:28.127Z,-1.40
2022-12-13T20:44:58.280Z,-1.50
2022-12-13T20:47:32.751Z,-1.60
2022-12-13T20:50:09.486Z,-1.60
2022-12-13T20:52:39.642Z,-1.70
2022-12-13T20:55:13.819Z,-1.70
2022-12-13T20:57:43.866Z,-1.80
2022-12-13T21:00:16.882Z,-1.80
2022-12-13T21:02:47.266Z,-1.70
2022-12-13T21:05:22.262Z,-1.80
2022-12-13T21:08:04.755Z,-1.80
2022-12-13T21:10:34.897Z,-1.80
2022-12-13T21:13:04.986Z,-1.80
2022-12-13T21:15:35.096Z,-1.80
2022-12-13T21:18:05.168Z,-1.80
2022-12-13T21:20:38.914Z,-1.90
2022-12-13T21:23:08.950Z,-1.90
2022-12-13T21:25:41.932Z,-1.90
2022-12-13T21:28:11.973Z,-2.00
2022-12-13T21:30:42.614Z,-2.00
2022-12-13T21:33:12.693Z,-2.00
2022-12-13T21:35:47.702Z,-2.00
2022-12-13T21:38:18.980Z,-1.80
2022-12-13T21:40:49.182Z,-1.80
2022-12-13T21:43:36.732Z,-1.90
2022-12-13T21:46:10.136Z,-1.80
2022-12-13T21:48:42.188Z,-1.80
2022-12-13T21:51:18.382Z,-1.90
2022-12-13T21:53:48.714Z,-1.80
2022-12-13T21:56:34.766Z,-1.80
2022-12-13T21:59:20.579Z,-1.90
2022-12-13T22:02:06.201Z,-1.80
2022-12-13T22:04:38.851Z,-1.90
2022-12-13T22:07:14.199Z,-1.80
2022-12-13T22:09:44.541Z,-1.80
2022-12-13T22:12:24.210Z,-1.80
2022-12-13T22:14:55.932Z,-1.80
2022-12-13T22:17:34.617Z,-1.80
2022-12-13T22:20:07.643Z,-1.80
2022-12-13T22:22:42.523Z,-1.80
2022-12-13T22:25:13.289Z,-1.80
2022-12-13T22:27:43.506Z,-1.80
2022-12-13T22:30:14.598Z,-1.80
2022-12-13T22:32:44.676Z,-1.80
2022-12-13T22:35:14.734Z,-1.80
2022-12-13T22:37:47.408Z,-1.80
2022-12-13T22:40:19.265Z,-1.90
2022-12-13T22:42:49.439Z,-1.80
2022-12-13T22:45:19.751Z,-1.80
2022-12-13T22:47:49.915Z,-1.90
2022-12-13T22:50:23.339Z,-1.90
2022-12-13T22:52:56.071Z,-1.90
2022-12-13T22:55:26.492Z,-1.90
2022-12-13T22:57:56.795Z,-1.90
2022-12-13T23:00:27.259Z,-1.80
2022-12-13T23:02:57.703Z,-1.80
2022-12-13T23:05:27.809Z,-1.80
2022-12-13T23:08:00.434Z,-1.80
2022-12-13T23:10:43.043Z,-1.80
2022-12-13T23:13:16.468Z,-1.90
2022-12-13T23:15:49.461Z,-1.80
2022-12-13T23:18:20.024Z,-1.80
2022-12-13T23:20:50.438Z,-1.90
2022-12-13T23:23:23.209Z,-1.80
2022-12-13T23:25:53.335Z,-1.80
2022-12-13T23:28:23.498Z,-1.80
2022-12-13T23:30:53.689Z,-1.90
2022-12-13T23:33:23.828Z,-1.90
2022-12-13T23:36:09.200Z,-1.70
2022-12-13T23:38:43.447Z,-1.80
2022-12-13T23:41:23.258Z,-1.80
2022-12-13T23:43:56.202Z,-1.80
2022-12-13T23:46:30.244Z,-1.80
2022-12-13T23:49:03.555Z,-1.80
2022-12-13T23:51:38.044Z,-1.80
2022-12-13T23:54:15.111Z,-1.80
2022-12-13T23:56:45.310Z,-1.80
2022-12-13T23:59:15.582Z,-1.80
